createdAt,value
2019-03-30T00:00:55.931Z,3.20
2019-03-30T00:01:55.926Z,3.17
2019-03-30T00:02:55.917Z,3.20
2019-03-30T00:03:55.912Z,3.17
2019-03-30T00:04:55.958Z,3.14
2019-03-30T00:05:55.890Z,3.14
2019-03-30T00:06:55.867Z,3.08
2019-03-30T00:07:55.853Z,3.05
2019-03-30T00:08:55.879Z,3.07
2019-03-30T00:09:55.857Z,3.08
2019-03-30T00:10:55.826Z,3.09
2019-03-30T00:11:57.830Z,3.08
2019-03-30T00:12:55.839Z,3.14
2019-03-30T00:13:55.789Z,3.11
2019-03-30T00:14:55.799Z,3.11
2019-03-30T00:15:55.771Z,3.11
2019-03-30T00:16:55.759Z,3.11
2019-03-30T00:17:55.805Z,3.08
2019-03-30T00:18:55.745Z,3.09
2019-03-30T00:19:55.773Z,3.05
2019-03-30T00:20:55.719Z,2.99
2019-03-30T00:21:55.707Z,2.97
2019-03-30T00:22:55.709Z,2.99
2019-03-30T00:23:55.685Z,2.99
2019-03-30T00:24:55.711Z,2.93
2019-03-30T00:25:55.677Z,2.94
2019-03-30T00:26:55.658Z,2.97
2019-03-30T00:27:55.649Z,2.97
2019-03-30T00:28:55.636Z,2.93
2019-03-30T00:29:55.616Z,2.94
2019-03-30T00:30:55.634Z,2.97
2019-03-30T00:31:55.597Z,3.00
2019-03-30T00:32:55.595Z,2.97
2019-03-30T00:33:55.615Z,2.91
2019-03-30T00:34:55.583Z,2.96
2019-03-30T00:35:55.584Z,2.82
2019-03-30T00:36:55.553Z,2.90
2019-03-30T00:37:55.550Z,2.90
2019-03-30T00:38:55.526Z,2.89
2019-03-30T00:39:55.515Z,2.84
2019-03-30T00:40:55.519Z,2.79
2019-03-30T00:41:55.490Z,2.82
2019-03-30T00:42:55.480Z,2.82
2019-03-30T00:43:55.470Z,2.78
2019-03-30T00:44:55.488Z,2.87
2019-03-30T00:45:55.466Z,2.82
2019-03-30T00:46:55.443Z,2.79
2019-03-30T00:47:55.434Z,2.79
2019-03-30T00:48:55.417Z,2.75
2019-03-30T00:49:55.406Z,2.79
2019-03-30T00:50:55.421Z,2.82
2019-03-30T00:51:55.392Z,2.71
2019-03-30T00:52:55.461Z,2.73
2019-03-30T00:53:55.364Z,2.72
2019-03-30T00:54:55.355Z,2.71
2019-03-30T00:55:55.374Z,2.73
2019-03-30T00:56:55.339Z,2.73
2019-03-30T00:57:55.324Z,2.68
2019-03-30T00:58:55.338Z,2.69
2019-03-30T00:59:55.308Z,2.63
2019-03-30T01:00:55.292Z,2.60
2019-03-30T01:01:55.295Z,2.66
2019-03-30T01:02:55.271Z,2.55
2019-03-30T01:03:55.257Z,2.66
2019-03-30T01:04:55.243Z,2.57
2019-03-30T01:05:58.208Z,2.60
2019-03-30T01:06:55.244Z,2.51
2019-03-30T01:07:55.229Z,2.48
2019-03-30T01:08:55.209Z,2.43
2019-03-30T01:09:55.195Z,2.43
2019-03-30T01:10:55.177Z,2.50
2019-03-30T01:11:55.219Z,2.57
2019-03-30T01:12:55.163Z,2.50
2019-03-30T01:13:55.161Z,2.55
2019-03-30T01:14:55.142Z,2.60
2019-03-30T01:15:55.129Z,2.48
2019-03-30T01:16:55.137Z,2.54
2019-03-30T01:17:55.175Z,2.55
2019-03-30T01:18:55.096Z,2.53
2019-03-30T01:20:02.703Z,2.45
2019-03-30T01:20:56.073Z,2.47
2019-03-30T01:21:56.338Z,2.50
2019-03-30T01:22:55.054Z,2.50
2019-03-30T01:23:55.061Z,2.43
2019-03-30T01:24:55.039Z,2.47
2019-03-30T01:25:55.030Z,2.43
2019-03-30T01:26:55.020Z,2.51
2019-03-30T01:27:55.008Z,2.40
2019-03-30T01:28:54.990Z,2.48
2019-03-30T01:29:55.020Z,2.53
2019-03-30T01:30:54.979Z,2.42
2019-03-30T01:31:54.977Z,2.40
2019-03-30T01:32:54.954Z,2.45
2019-03-30T01:33:54.984Z,2.35
2019-03-30T01:34:54.926Z,2.43
2019-03-30T01:35:54.921Z,2.43
2019-03-30T01:36:54.922Z,2.40
2019-03-30T01:37:54.901Z,2.40
2019-03-30T01:38:54.928Z,2.37
2019-03-30T01:39:54.886Z,2.45
2019-03-30T01:40:54.865Z,2.35
2019-03-30T01:41:54.867Z,2.35
2019-03-30T01:42:54.853Z,2.25
2019-03-30T01:43:54.825Z,2.32
2019-03-30T01:44:54.825Z,2.33
2019-03-30T01:45:54.854Z,2.32
2019-03-30T01:46:54.832Z,2.29
2019-03-30T01:47:54.785Z,2.30
2019-03-30T01:48:54.773Z,2.33
2019-03-30T01:49:54.811Z,2.28
2019-03-30T01:50:54.761Z,2.25
2019-03-30T01:51:54.747Z,2.32
2019-03-30T01:52:54.753Z,2.29
2019-03-30T01:53:54.737Z,2.25
2019-03-30T01:54:54.715Z,2.21
2019-03-30T01:55:54.695Z,2.25
2019-03-30T01:56:54.690Z,2.24
2019-03-30T01:57:54.761Z,2.21
2019-03-30T01:58:54.672Z,2.29
2019-03-30T01:59:54.657Z,2.24
2019-03-30T02:00:54.691Z,2.24
2019-03-30T02:01:54.637Z,2.24
2019-03-30T02:02:54.641Z,2.24
2019-03-30T02:03:54.617Z,2.25
2019-03-30T02:04:54.607Z,2.22
2019-03-30T02:05:54.600Z,2.19
2019-03-30T02:06:54.607Z,2.21
2019-03-30T02:07:54.589Z,2.21
2019-03-30T02:08:54.559Z,2.25
2019-03-30T02:09:54.545Z,2.15
2019-03-30T02:10:54.543Z,2.15
2019-03-30T02:11:54.533Z,2.14
2019-03-30T02:12:54.532Z,2.21
2019-03-30T02:13:54.507Z,2.03
2019-03-30T02:14:54.499Z,2.12
2019-03-30T02:15:54.485Z,1.95
2019-03-30T02:16:54.481Z,2.06
2019-03-30T02:17:54.480Z,2.06
2019-03-30T02:18:54.452Z,2.03
2019-03-30T02:19:54.444Z,2.04
2019-03-30T02:20:54.433Z,2.10
2019-03-30T02:21:54.423Z,2.21
2019-03-30T02:22:54.458Z,2.03
2019-03-30T02:23:54.405Z,2.12
2019-03-30T02:24:54.387Z,2.10
2019-03-30T02:25:54.383Z,2.04
2019-03-30T02:26:54.383Z,2.10
2019-03-30T02:27:54.369Z,2.11
2019-03-30T02:28:54.379Z,2.03
2019-03-30T02:29:54.342Z,2.14
2019-03-30T02:30:54.329Z,2.17
2019-03-30T02:31:54.350Z,2.06
2019-03-30T02:32:54.325Z,2.01
2019-03-30T02:33:54.305Z,2.11
2019-03-30T02:34:54.291Z,2.04
2019-03-30T02:35:54.267Z,2.04
2019-03-30T02:36:54.266Z,2.11
2019-03-30T02:37:54.277Z,1.92
2019-03-30T02:38:54.251Z,1.85
2019-03-30T02:39:54.232Z,1.97
2019-03-30T02:40:54.255Z,1.99
2019-03-30T02:41:54.211Z,1.95
2019-03-30T02:42:54.217Z,2.00
2019-03-30T02:43:54.188Z,1.93
2019-03-30T02:44:54.176Z,1.97
2019-03-30T02:45:54.205Z,1.93
2019-03-30T02:46:54.155Z,1.92
2019-03-30T02:47:54.154Z,2.06
2019-03-30T02:48:54.137Z,1.97
2019-03-30T02:49:54.134Z,1.97
2019-03-30T02:50:54.114Z,1.92
2019-03-30T02:51:54.111Z,1.93
2019-03-30T02:52:54.180Z,1.99
2019-03-30T02:53:54.081Z,1.89
2019-03-30T02:54:54.071Z,1.85
2019-03-30T02:55:54.063Z,1.74
2019-03-30T02:56:54.050Z,1.78
2019-03-30T02:57:54.062Z,1.91
2019-03-30T02:58:54.041Z,1.87
2019-03-30T02:59:54.122Z,1.84
2019-03-30T03:00:54.008Z,1.84
2019-03-30T03:01:53.991Z,1.78
2019-03-30T03:02:54.008Z,1.82
2019-03-30T03:03:53.969Z,1.74
2019-03-30T03:04:53.959Z,1.71
2019-03-30T03:05:53.949Z,1.81
2019-03-30T03:06:53.945Z,1.75
2019-03-30T03:07:54.006Z,1.78
2019-03-30T03:08:53.929Z,1.67
2019-03-30T03:09:53.923Z,1.73
2019-03-30T03:10:53.897Z,1.80
2019-03-30T03:11:53.897Z,1.78
2019-03-30T03:12:53.884Z,1.75
2019-03-30T03:13:53.930Z,1.77
2019-03-30T03:14:53.861Z,1.75
2019-03-30T03:15:53.844Z,1.66
2019-03-30T03:16:53.834Z,1.69
2019-03-30T03:17:53.845Z,1.77
2019-03-30T03:18:53.833Z,1.74
2019-03-30T03:19:53.802Z,1.77
2019-03-30T03:21:07.497Z,1.80
2019-03-30T03:21:54.784Z,1.80
2019-03-30T03:22:53.771Z,1.73
2019-03-30T03:23:53.775Z,1.66
2019-03-30T03:24:53.750Z,1.77
2019-03-30T03:25:53.738Z,1.69
2019-03-30T03:26:53.723Z,1.64
2019-03-30T03:27:53.745Z,1.73
2019-03-30T03:28:53.720Z,1.71
2019-03-30T03:29:53.701Z,1.74
2019-03-30T03:30:53.892Z,1.73
2019-03-30T03:31:53.679Z,1.71
2019-03-30T03:32:53.677Z,1.74
2019-03-30T03:33:53.712Z,1.71
2019-03-30T03:34:53.644Z,1.75
2019-03-30T03:35:53.650Z,1.69
2019-03-30T03:36:53.623Z,1.77
2019-03-30T03:37:53.607Z,1.78
2019-03-30T03:38:53.609Z,1.62
2019-03-30T03:39:53.599Z,1.69
2019-03-30T03:40:53.588Z,1.75
2019-03-30T03:41:53.600Z,1.67
2019-03-30T03:42:53.562Z,1.62
2019-03-30T03:43:53.563Z,1.55
2019-03-30T03:44:53.544Z,1.55
2019-03-30T03:45:53.522Z,1.60
2019-03-30T03:46:53.516Z,1.48
2019-03-30T03:47:53.502Z,1.49
2019-03-30T03:48:53.557Z,1.59
2019-03-30T03:49:53.478Z,1.71
2019-03-30T03:50:53.473Z,1.59
2019-03-30T03:51:53.463Z,1.62
2019-03-30T03:52:53.446Z,1.63
2019-03-30T03:53:53.458Z,1.63
2019-03-30T03:54:53.430Z,1.67
2019-03-30T03:55:53.418Z,1.67
2019-03-30T03:56:53.463Z,1.52
2019-03-30T03:57:53.401Z,1.48
2019-03-30T03:58:53.402Z,1.57
2019-03-30T03:59:53.375Z,1.46
2019-03-30T04:00:53.367Z,1.57
2019-03-30T04:01:53.355Z,1.60
2019-03-30T04:02:53.352Z,1.62
2019-03-30T04:03:53.403Z,1.59
2019-03-30T04:04:53.363Z,1.63
2019-03-30T04:05:53.312Z,1.62
2019-03-30T04:06:53.310Z,1.64
2019-03-30T04:07:53.285Z,1.55
2019-03-30T04:08:53.294Z,1.56
2019-03-30T04:09:53.286Z,1.55
2019-03-30T04:10:53.259Z,1.48
2019-03-30T04:11:53.252Z,1.55
2019-03-30T04:12:53.244Z,1.49
2019-03-30T04:13:53.261Z,1.53
2019-03-30T04:14:53.217Z,1.56
2019-03-30T04:15:53.230Z,1.52
2019-03-30T04:16:53.194Z,1.53
2019-03-30T04:17:53.192Z,1.38
2019-03-30T04:18:53.181Z,1.48
2019-03-30T04:19:53.168Z,1.45
2019-03-30T04:20:53.153Z,1.46
2019-03-30T04:21:53.170Z,1.45
2019-03-30T04:22:53.131Z,1.48
2019-03-30T04:23:54.517Z,1.44
2019-03-30T04:24:53.134Z,1.38
2019-03-30T04:25:53.096Z,1.45
2019-03-30T04:26:53.083Z,1.38
2019-03-30T04:27:53.075Z,1.46
2019-03-30T04:28:53.083Z,1.41
2019-03-30T04:29:53.122Z,1.45
2019-03-30T04:30:53.051Z,1.48
2019-03-30T04:31:53.032Z,1.41
2019-03-30T04:32:53.027Z,1.46
2019-03-30T04:33:53.044Z,1.41
2019-03-30T04:34:52.997Z,1.42
2019-03-30T04:35:52.990Z,1.44
2019-03-30T04:36:53.002Z,1.46
2019-03-30T04:37:52.980Z,1.42
2019-03-30T04:38:52.956Z,1.45
2019-03-30T04:39:52.963Z,1.41
2019-03-30T04:40:52.937Z,1.41
2019-03-30T04:41:52.928Z,1.30
2019-03-30T04:42:52.914Z,1.41
2019-03-30T04:43:52.912Z,1.48
2019-03-30T04:44:52.906Z,1.49
2019-03-30T04:45:52.880Z,1.41
2019-03-30T04:46:52.876Z,1.52
2019-03-30T04:47:52.864Z,1.52
2019-03-30T04:48:52.856Z,1.45
2019-03-30T04:49:52.916Z,1.41
2019-03-30T04:50:52.832Z,1.52
2019-03-30T04:51:57.854Z,1.42
2019-03-30T04:52:53.865Z,1.45
2019-03-30T04:53:52.800Z,1.42
2019-03-30T04:54:52.811Z,1.42
2019-03-30T04:55:52.779Z,1.42
2019-03-30T04:56:52.764Z,1.49
2019-03-30T04:57:52.756Z,1.49
2019-03-30T04:58:52.743Z,1.48
2019-03-30T04:59:52.785Z,1.59
2019-03-30T05:00:52.726Z,1.52
2019-03-30T05:01:52.798Z,1.60
2019-03-30T05:02:52.700Z,1.60
2019-03-30T05:03:52.692Z,1.49
2019-03-30T05:04:52.703Z,1.56
2019-03-30T05:05:52.719Z,1.57
2019-03-30T05:06:52.659Z,1.48
2019-03-30T05:07:52.641Z,1.69
2019-03-30T05:08:52.647Z,1.56
2019-03-30T05:09:52.644Z,1.57
2019-03-30T05:10:52.619Z,1.57
2019-03-30T05:11:52.640Z,1.73
2019-03-30T05:12:52.595Z,1.78
2019-03-30T05:13:52.587Z,1.85
2019-03-30T05:14:52.587Z,1.84
2019-03-30T05:15:52.569Z,1.82
2019-03-30T05:16:52.553Z,1.87
2019-03-30T05:17:52.549Z,1.91
2019-03-30T05:18:52.527Z,1.89
2019-03-30T05:19:52.531Z,1.89
2019-03-30T05:20:52.553Z,1.95
2019-03-30T05:21:52.495Z,2.00
2019-03-30T05:22:52.485Z,1.95
2019-03-30T05:23:52.483Z,2.11
2019-03-30T05:24:52.461Z,2.00
2019-03-30T05:25:52.475Z,2.11
2019-03-30T05:26:52.445Z,2.10
2019-03-30T05:27:52.450Z,2.19
2019-03-30T05:28:52.422Z,2.19
2019-03-30T05:29:52.410Z,2.17
2019-03-30T05:30:52.425Z,2.21
2019-03-30T05:31:52.393Z,2.25
2019-03-30T05:33:05.014Z,2.30
2019-03-30T05:33:53.369Z,2.32
2019-03-30T05:34:52.363Z,2.33
2019-03-30T05:35:52.364Z,2.50
2019-03-30T05:36:52.336Z,2.45
2019-03-30T05:37:52.329Z,2.53
2019-03-30T05:38:52.317Z,2.53
2019-03-30T05:39:52.339Z,2.54
2019-03-30T05:40:52.310Z,2.66
2019-03-30T05:41:52.329Z,2.61
2019-03-30T05:42:52.302Z,2.61
2019-03-30T05:43:52.270Z,2.76
2019-03-30T05:44:52.250Z,2.73
2019-03-30T05:45:52.349Z,2.81
2019-03-30T05:46:52.231Z,2.86
2019-03-30T05:47:52.224Z,2.86
2019-03-30T05:48:52.216Z,2.91
2019-03-30T05:49:52.198Z,2.94
2019-03-30T05:50:52.202Z,2.93
2019-03-30T05:51:52.207Z,2.93
2019-03-30T05:52:52.172Z,2.96
2019-03-30T05:53:52.156Z,3.05
2019-03-30T05:54:52.142Z,3.11
2019-03-30T05:55:52.146Z,3.23
2019-03-30T05:56:52.123Z,3.22
2019-03-30T05:57:52.144Z,3.32
2019-03-30T05:58:52.102Z,3.46
2019-03-30T05:59:52.092Z,3.51
2019-03-30T06:00:52.098Z,3.41
2019-03-30T06:01:52.068Z,3.49
2019-03-30T06:02:52.056Z,3.55
2019-03-30T06:03:52.050Z,3.63
2019-03-30T06:04:52.068Z,3.69
2019-03-30T06:05:52.043Z,3.81
2019-03-30T06:06:52.012Z,3.90
2019-03-30T06:07:52.004Z,3.92
2019-03-30T06:08:51.994Z,3.99
2019-03-30T06:09:51.986Z,4.03
2019-03-30T06:10:52.041Z,3.98
2019-03-30T06:11:51.965Z,4.10
2019-03-30T06:12:51.954Z,4.23
2019-03-30T06:13:51.944Z,4.24
2019-03-30T06:14:51.934Z,4.35
2019-03-30T06:15:51.920Z,4.41
2019-03-30T06:16:51.932Z,4.49
2019-03-30T06:17:51.923Z,4.53
2019-03-30T06:18:51.887Z,4.71
2019-03-30T06:19:51.874Z,4.66
2019-03-30T06:20:51.865Z,4.64
2019-03-30T06:21:51.877Z,4.75
2019-03-30T06:22:51.840Z,4.78
2019-03-30T06:23:51.874Z,4.94
2019-03-30T06:24:51.825Z,5.12
2019-03-30T06:25:51.811Z,5.18
2019-03-30T06:26:51.815Z,5.25
2019-03-30T06:27:51.800Z,5.34
2019-03-30T06:28:51.782Z,5.47
2019-03-30T06:29:51.773Z,5.52
2019-03-30T06:30:51.778Z,5.61
2019-03-30T06:31:51.777Z,5.67
2019-03-30T06:32:51.731Z,5.79
2019-03-30T06:33:51.729Z,5.97
2019-03-30T06:34:51.739Z,5.94
2019-03-30T06:35:51.702Z,6.16
2019-03-30T06:36:51.709Z,6.24
2019-03-30T06:37:51.733Z,6.30
2019-03-30T06:38:51.670Z,6.45
2019-03-30T06:39:51.658Z,6.57
2019-03-30T06:40:51.645Z,6.67
2019-03-30T06:41:51.733Z,6.86
2019-03-30T06:42:51.638Z,7.24
2019-03-30T06:43:51.665Z,7.80
2019-03-30T06:44:51.611Z,8.21
2019-03-30T06:45:51.601Z,8.86
2019-03-30T06:46:51.595Z,9.41
2019-03-30T06:47:51.575Z,10.02
2019-03-30T06:48:51.562Z,10.68
2019-03-30T06:49:51.549Z,11.18
2019-03-30T06:50:51.543Z,11.69
2019-03-30T06:51:51.583Z,12.13
2019-03-30T06:52:57.901Z,12.59
2019-03-30T06:53:52.509Z,13.08
2019-03-30T06:54:51.494Z,13.67
2019-03-30T06:55:51.483Z,14.01
2019-03-30T06:56:51.491Z,14.36
2019-03-30T06:57:51.469Z,14.61
2019-03-30T06:58:51.456Z,14.90
2019-03-30T06:59:51.480Z,15.19
2019-03-30T07:00:51.431Z,15.54
2019-03-30T07:01:51.437Z,15.80
2019-03-30T07:02:51.412Z,16.18
2019-03-30T07:03:51.394Z,16.64
2019-03-30T07:04:51.393Z,16.99
2019-03-30T07:05:51.394Z,17.14
2019-03-30T07:06:51.376Z,17.52
2019-03-30T07:07:51.362Z,17.84
2019-03-30T07:08:51.346Z,18.21
2019-03-30T07:09:51.330Z,18.39
2019-03-30T07:10:51.332Z,18.39
2019-03-30T07:11:51.368Z,18.45
2019-03-30T07:12:51.300Z,18.28
2019-03-30T07:13:51.288Z,18.26
2019-03-30T07:14:51.276Z,18.21
2019-03-30T07:15:51.264Z,18.23
2019-03-30T07:16:51.273Z,18.30
2019-03-30T07:17:51.264Z,18.46
2019-03-30T07:18:51.248Z,18.63
2019-03-30T07:19:51.240Z,18.75
2019-03-30T07:20:51.214Z,18.83
2019-03-30T07:21:51.221Z,19.04
2019-03-30T07:22:51.396Z,19.45
2019-03-30T07:23:51.180Z,19.78
2019-03-30T07:24:51.166Z,20.11
2019-03-30T07:25:51.168Z,20.34
2019-03-30T07:26:51.189Z,20.63
2019-03-30T07:27:51.156Z,20.80
2019-03-30T07:28:51.138Z,21.03
2019-03-30T07:29:51.155Z,21.16
2019-03-30T07:30:51.101Z,21.44
2019-03-30T07:31:51.110Z,21.47
2019-03-30T07:32:51.132Z,21.58
2019-03-30T07:33:51.071Z,21.73
2019-03-30T07:34:51.059Z,21.69
2019-03-30T07:35:51.056Z,21.62
2019-03-30T07:36:51.056Z,21.80
2019-03-30T07:37:51.053Z,22.06
2019-03-30T07:38:51.022Z,22.27
2019-03-30T07:39:51.005Z,22.49
2019-03-30T07:40:50.993Z,22.48
2019-03-30T07:41:51.008Z,22.36
2019-03-30T07:42:51.020Z,22.30
2019-03-30T07:43:50.986Z,22.56
2019-03-30T07:44:50.956Z,22.74
2019-03-30T07:45:50.944Z,22.85
2019-03-30T07:46:50.930Z,22.85
2019-03-30T07:47:50.940Z,22.83
2019-03-30T07:48:50.911Z,22.81
2019-03-30T07:49:50.958Z,22.76
2019-03-30T07:50:50.899Z,22.99
2019-03-30T07:51:50.877Z,23.21
2019-03-30T07:52:50.882Z,23.25
2019-03-30T07:53:50.857Z,23.51
2019-03-30T07:54:50.866Z,23.73
2019-03-30T07:55:50.854Z,24.21
2019-03-30T07:57:03.890Z,24.68
2019-03-30T07:57:51.862Z,25.00
2019-03-30T07:58:50.803Z,25.14
2019-03-30T07:59:50.795Z,25.14
2019-03-30T08:00:50.782Z,25.08
2019-03-30T08:01:50.777Z,25.18
2019-03-30T08:02:50.792Z,25.51
2019-03-30T08:03:50.748Z,25.64
2019-03-30T08:04:50.745Z,25.90
2019-03-30T08:05:54.168Z,25.85
2019-03-30T08:06:50.717Z,25.88
2019-03-30T08:07:50.722Z,25.98
2019-03-30T08:08:50.710Z,26.15
2019-03-30T08:09:50.683Z,26.34
2019-03-30T08:10:50.675Z,26.07
2019-03-30T08:11:50.661Z,26.11
2019-03-30T08:12:50.685Z,26.05
2019-03-30T08:13:50.641Z,25.98
2019-03-30T08:14:50.635Z,25.98
2019-03-30T08:15:50.633Z,25.81
2019-03-30T08:16:50.609Z,25.75
2019-03-30T08:17:50.593Z,25.93
2019-03-30T08:18:50.607Z,25.88
2019-03-30T08:19:50.609Z,25.82
2019-03-30T08:20:50.569Z,25.56
2019-03-30T08:21:50.571Z,25.64
2019-03-30T08:22:50.541Z,25.58
2019-03-30T08:23:50.561Z,25.33
2019-03-30T08:24:50.524Z,25.14
2019-03-30T08:25:50.513Z,24.70
2019-03-30T08:26:50.503Z,24.53
2019-03-30T08:27:50.490Z,24.26
2019-03-30T08:28:50.495Z,23.91
2019-03-30T08:29:50.482Z,23.81
2019-03-30T08:30:50.457Z,23.66
2019-03-30T08:31:50.444Z,23.56
2019-03-30T08:32:50.438Z,23.56
2019-03-30T08:33:50.451Z,23.52
2019-03-30T08:34:50.486Z,23.33
2019-03-30T08:35:50.403Z,23.48
2019-03-30T08:36:50.394Z,23.61
2019-03-30T08:37:50.376Z,23.86
2019-03-30T08:38:50.371Z,24.08
2019-03-30T08:39:50.370Z,24.00
2019-03-30T08:40:50.346Z,23.94
2019-03-30T08:41:50.339Z,23.74
2019-03-30T08:42:50.336Z,23.33
2019-03-30T08:43:50.378Z,22.89
2019-03-30T08:44:50.326Z,22.53
2019-03-30T08:45:50.294Z,22.11
2019-03-30T08:46:50.303Z,21.80
2019-03-30T08:47:50.269Z,21.60
2019-03-30T08:48:50.266Z,21.51
2019-03-30T08:49:50.313Z,21.60
2019-03-30T08:50:50.294Z,21.74
2019-03-30T08:51:50.236Z,22.09
2019-03-30T08:52:50.227Z,22.13
2019-03-30T08:53:54.818Z,22.09
2019-03-30T08:54:50.219Z,21.94
2019-03-30T08:55:50.222Z,21.88
2019-03-30T08:56:50.191Z,21.90
2019-03-30T08:57:50.188Z,21.85
2019-03-30T08:58:50.154Z,21.59
2019-03-30T08:59:50.164Z,21.59
2019-03-30T09:00:50.146Z,21.74
2019-03-30T09:01:50.126Z,21.67
2019-03-30T09:02:50.114Z,21.44
2019-03-30T09:03:50.109Z,21.08
2019-03-30T09:04:50.109Z,20.83
2019-03-30T09:05:50.115Z,20.77
2019-03-30T09:06:50.064Z,20.83
2019-03-30T09:07:50.062Z,20.71
2019-03-30T09:08:50.059Z,20.60
2019-03-30T09:09:50.056Z,20.63
2019-03-30T09:10:50.048Z,20.80
2019-03-30T09:11:50.017Z,21.22
2019-03-30T09:12:50.005Z,21.60
2019-03-30T09:13:49.998Z,22.09
2019-03-30T09:14:50.019Z,22.36
2019-03-30T09:15:50.039Z,22.33
2019-03-30T09:16:49.961Z,22.48
2019-03-30T09:17:49.953Z,22.44
2019-03-30T09:18:49.976Z,22.59
2019-03-30T09:19:49.949Z,22.77
2019-03-30T09:20:49.933Z,22.70
2019-03-30T09:21:49.913Z,22.48
2019-03-30T09:22:49.897Z,22.16
2019-03-30T09:23:49.893Z,21.96
2019-03-30T09:24:49.887Z,21.82
2019-03-30T09:25:49.893Z,21.55
2019-03-30T09:26:49.865Z,21.41
2019-03-30T09:27:49.843Z,21.37
2019-03-30T09:28:49.849Z,21.47
2019-03-30T09:29:49.830Z,21.44
2019-03-30T09:30:49.821Z,21.58
2019-03-30T09:31:49.801Z,21.56
2019-03-30T09:32:49.785Z,21.47
2019-03-30T09:33:49.785Z,21.40
2019-03-30T09:34:49.772Z,21.14
2019-03-30T09:35:49.791Z,20.71
2019-03-30T09:36:49.869Z,20.58
2019-03-30T09:37:49.752Z,20.61
2019-03-30T09:38:49.731Z,20.56
2019-03-30T09:39:49.719Z,20.37
2019-03-30T09:40:49.734Z,20.41
2019-03-30T09:41:49.697Z,20.29
2019-03-30T09:42:49.727Z,20.09
2019-03-30T09:43:49.671Z,20.15
2019-03-30T09:44:49.697Z,20.42
2019-03-30T09:45:49.671Z,20.89
2019-03-30T09:46:49.645Z,21.16
2019-03-30T09:47:49.649Z,21.20
2019-03-30T09:48:49.622Z,21.22
2019-03-30T09:49:49.607Z,21.56
2019-03-30T09:50:49.595Z,21.71
2019-03-30T09:51:49.602Z,21.88
2019-03-30T09:52:49.584Z,21.97
2019-03-30T09:53:49.567Z,21.85
2019-03-30T09:54:49.561Z,21.56
2019-03-30T09:55:49.563Z,21.35
2019-03-30T09:56:49.562Z,21.32
2019-03-30T09:57:49.517Z,21.37
2019-03-30T09:58:49.527Z,21.29
2019-03-30T09:59:49.510Z,21.28
2019-03-30T10:00:49.490Z,21.44
2019-03-30T10:01:49.589Z,21.65
2019-03-30T10:02:49.464Z,21.73
2019-03-30T10:03:49.465Z,21.74
2019-03-30T10:04:49.446Z,21.69
2019-03-30T10:05:49.438Z,21.77
2019-03-30T10:06:49.447Z,21.71
2019-03-30T10:07:49.422Z,21.82
2019-03-30T10:08:49.400Z,21.67
2019-03-30T10:09:49.392Z,21.71
2019-03-30T10:10:49.408Z,21.82
2019-03-30T10:11:49.382Z,22.28
2019-03-30T10:12:49.356Z,22.33
2019-03-30T10:13:49.349Z,22.23
2019-03-30T10:14:49.340Z,22.27
2019-03-30T10:15:49.350Z,22.23
2019-03-30T10:16:49.336Z,22.27
2019-03-30T10:17:49.308Z,22.44
2019-03-30T10:18:49.293Z,22.36
2019-03-30T10:20:03.518Z,22.48
2019-03-30T10:20:50.278Z,22.62
2019-03-30T10:21:49.349Z,22.76
2019-03-30T10:22:49.263Z,22.99
2019-03-30T10:23:49.236Z,23.37
2019-03-30T10:24:49.234Z,23.71
2019-03-30T10:25:49.223Z,23.70
2019-03-30T10:26:49.257Z,23.55
2019-03-30T10:27:49.212Z,23.14
2019-03-30T10:28:49.188Z,22.93
2019-03-30T10:29:49.194Z,22.78
2019-03-30T10:30:49.160Z,22.58
2019-03-30T10:31:49.176Z,22.53
2019-03-30T10:32:49.137Z,22.83
2019-03-30T10:33:49.135Z,23.15
2019-03-30T10:34:49.129Z,23.06
2019-03-30T10:35:49.130Z,23.14
2019-03-30T10:36:49.124Z,23.11
2019-03-30T10:37:49.108Z,22.91
2019-03-30T10:38:49.082Z,22.66
2019-03-30T10:39:49.076Z,22.70
2019-03-30T10:40:49.060Z,22.48
2019-03-30T10:41:49.059Z,22.30
2019-03-30T10:42:49.030Z,22.36
2019-03-30T10:43:49.021Z,22.33
2019-03-30T10:44:49.009Z,22.25
2019-03-30T10:45:49.016Z,22.06
2019-03-30T10:46:49.006Z,22.18
2019-03-30T10:47:48.989Z,22.36
2019-03-30T10:48:48.969Z,22.59
2019-03-30T10:49:48.960Z,22.89
2019-03-30T10:50:48.967Z,23.13
2019-03-30T10:51:48.935Z,23.29
2019-03-30T10:52:48.923Z,23.44
2019-03-30T10:53:48.919Z,23.70
2019-03-30T10:54:53.053Z,24.00
2019-03-30T10:55:48.932Z,24.37
2019-03-30T10:56:48.877Z,24.53
2019-03-30T10:57:48.875Z,24.43
2019-03-30T10:58:48.867Z,24.53
2019-03-30T10:59:48.859Z,24.66
2019-03-30T11:00:48.883Z,24.76
2019-03-30T11:01:48.836Z,24.58
2019-03-30T11:02:48.816Z,24.65
2019-03-30T11:03:48.815Z,24.53
2019-03-30T11:04:48.804Z,24.21
2019-03-30T11:05:48.822Z,24.03
2019-03-30T11:06:48.795Z,23.97
2019-03-30T11:07:48.764Z,23.79
2019-03-30T11:08:48.759Z,23.39
2019-03-30T11:09:49.623Z,23.28
2019-03-30T11:10:48.734Z,22.98
2019-03-30T11:11:48.758Z,22.71
2019-03-30T11:12:48.718Z,22.61
2019-03-30T11:13:48.718Z,22.89
2019-03-30T11:14:48.705Z,22.92
2019-03-30T11:15:48.684Z,23.37
2019-03-30T11:16:48.710Z,23.56
2019-03-30T11:17:48.657Z,24.04
2019-03-30T11:18:48.652Z,24.62
2019-03-30T11:19:48.636Z,25.30
2019-03-30T11:20:48.628Z,26.03
2019-03-30T11:21:48.634Z,26.56
2019-03-30T11:22:48.606Z,26.78
2019-03-30T11:23:48.596Z,26.76
2019-03-30T11:24:48.596Z,26.83
2019-03-30T11:25:48.579Z,26.94
2019-03-30T11:26:48.580Z,27.45
2019-03-30T11:27:48.550Z,28.05
2019-03-30T11:28:48.539Z,28.34
2019-03-30T11:29:48.530Z,28.32
2019-03-30T11:30:48.548Z,28.53
2019-03-30T11:31:48.568Z,28.66
2019-03-30T11:32:48.498Z,28.57
2019-03-30T11:33:48.489Z,28.64
2019-03-30T11:34:48.482Z,28.64
2019-03-30T11:35:48.484Z,28.64
2019-03-30T11:36:48.471Z,28.96
2019-03-30T11:37:48.453Z,29.41
2019-03-30T11:38:48.435Z,29.93
2019-03-30T11:39:48.422Z,29.91
2019-03-30T11:40:48.421Z,30.22
2019-03-30T11:41:48.438Z,30.02
2019-03-30T11:42:48.401Z,29.81
2019-03-30T11:43:48.394Z,29.71
2019-03-30T11:44:48.379Z,29.91
2019-03-30T11:45:48.372Z,29.83
2019-03-30T11:46:48.371Z,29.98
2019-03-30T11:47:48.345Z,29.81
2019-03-30T11:48:48.331Z,29.49
2019-03-30T11:49:48.330Z,29.39
2019-03-30T11:50:48.316Z,29.46
2019-03-30T11:51:48.319Z,29.81
2019-03-30T11:52:48.293Z,30.21
2019-03-30T11:53:48.289Z,30.64
2019-03-30T11:54:48.289Z,30.62
2019-03-30T11:55:48.267Z,30.48
2019-03-30T11:56:48.263Z,30.52
2019-03-30T11:57:48.247Z,30.86
2019-03-30T11:58:48.227Z,31.05
2019-03-30T11:59:48.229Z,31.41
2019-03-30T12:00:48.213Z,31.90
2019-03-30T12:01:48.209Z,32.24
2019-03-30T12:02:48.196Z,32.72
2019-03-30T12:03:48.189Z,32.21
2019-03-30T12:04:48.172Z,32.02
2019-03-30T12:05:48.168Z,31.59
2019-03-30T12:06:51.602Z,31.07
2019-03-30T12:07:48.222Z,30.70
2019-03-30T12:08:48.127Z,30.56
2019-03-30T12:09:48.115Z,30.33
2019-03-30T12:10:48.115Z,30.24
2019-03-30T12:11:48.114Z,30.24
2019-03-30T12:12:48.100Z,29.99
2019-03-30T12:13:48.078Z,29.87
2019-03-30T12:14:48.070Z,29.65
2019-03-30T12:15:48.062Z,29.63
2019-03-30T12:16:48.067Z,29.56
2019-03-30T12:17:48.042Z,29.73
2019-03-30T12:18:48.029Z,29.59
2019-03-30T12:19:48.025Z,29.49
2019-03-30T12:20:48.007Z,29.22
2019-03-30T12:21:48.008Z,29.49
2019-03-30T12:22:47.984Z,29.12
2019-03-30T12:23:47.978Z,29.12
2019-03-30T12:24:47.964Z,28.98
2019-03-30T12:25:47.971Z,28.83
2019-03-30T12:26:47.955Z,28.53
2019-03-30T12:27:47.935Z,28.47
2019-03-30T12:28:47.938Z,28.66
2019-03-30T12:29:47.912Z,28.87
2019-03-30T12:30:47.912Z,28.89
2019-03-30T12:31:47.905Z,29.13
2019-03-30T12:32:47.878Z,28.89
2019-03-30T12:33:47.888Z,29.10
2019-03-30T12:34:47.866Z,29.28
2019-03-30T12:35:47.848Z,29.49
2019-03-30T12:36:47.858Z,29.59
2019-03-30T12:37:47.826Z,29.49
2019-03-30T12:38:47.824Z,29.40
2019-03-30T12:39:47.808Z,29.89
2019-03-30T12:40:47.800Z,30.39
2019-03-30T12:41:47.803Z,30.83
2019-03-30T12:42:47.778Z,31.12
2019-03-30T12:43:47.771Z,31.17
2019-03-30T12:44:47.763Z,30.65
2019-03-30T12:45:47.754Z,30.39
2019-03-30T12:46:47.760Z,30.24
2019-03-30T12:47:47.734Z,30.11
2019-03-30T12:48:47.729Z,30.02
2019-03-30T12:49:47.728Z,29.31
2019-03-30T12:50:47.700Z,29.36
2019-03-30T12:51:47.866Z,29.40
2019-03-30T12:52:47.678Z,29.78
2019-03-30T12:53:50.521Z,29.95
2019-03-30T12:54:47.670Z,30.18
2019-03-30T12:55:49.438Z,30.39
2019-03-30T12:56:47.725Z,30.73
2019-03-30T12:57:47.630Z,30.92
2019-03-30T12:58:47.614Z,30.97
2019-03-30T12:59:47.608Z,31.30
2019-03-30T13:00:47.594Z,30.64
2019-03-30T13:01:47.619Z,30.39
2019-03-30T13:02:47.582Z,30.55
2019-03-30T13:03:47.568Z,30.65
2019-03-30T13:04:47.561Z,30.55
2019-03-30T13:05:47.543Z,30.89